Portada
METAR-TAF:

METAR-TAF

Aeroports :

Kunming, Xina

latitud: 25-01N, longitud: 102-41E, altitud: 1892 m

Observació

L'informe es va fer fa 33 minuts, a les 03:00 UTC
Vent calma
Temperatura 12°C
Humitat 100%
Pressió 1031 hPa
Visibilitat: 6000 m
Núvols disperses a una alçada de 300 ft
Núvols disperses a una alçada de 1600 ft
Cel cobert a una alçada de 3300 ft
xàfecs de pluja

METAR: ZPPP 150300Z 00000MPS 6000 -SHRA SCT003 SCT016 OVC033 12/12 Q1031 NOSIG

Hora: 11:33 (03:33 UTC)

Pronòstic

L'informe es va fer fa 8 hores i 24 minuts, a les 19:09 UTC
Pronòstic vàlid del 15 a les 00 UTC al 15 a les 24 UTC
Vent 8 kt del Est/Nord-Est
Visibilitat: 4000 m
Núvols disperses a una alçada de 400 ft
Núvols disperses a una alçada de 2000 ft
Cel ennuvolat a una alçada de 3300 ft
xàfecs de pluja, boirina
Evolucionant progressivament
l' 15 a les 02 UTC al 15 a les 03 UTC
Vent 10 kt del Sud/Sud-Oest

TAF: ZPPP 141909Z 1500/1524 07004MPS 4000 -SHRA BR SCT004 SCT020 BKN033 TX20/1508Z TN12/1523Z BECMG 1502/1503 21005MPS

Observacions i pronòstics meteorològics de més de 4000 aeroports (METAR i TAF).

Les estacions disponibles són els punts grocs i vermells al mapa.

Posi el ratolí al punt desitjat per veure el nom de l'estació.

Feu clic per veure les observacions i els pronòstics meteorològics.

Per canviar el mapa: feu clic els botons verds amb una creu de color negre per apropar; al botó verd amb un guió per allunyar la imatge; o en les fletxes verdes per a mapes adjacents.


METAR-TAF: